sensor_id;sensor_type;location;lat;lon;timestamp;P1;durP1;ratioP1;P2;durP2;ratioP2
76115;SDS011;64847;45.778;12.802;2024-01-06T00:01:44;127.70;;;96.63;;
76115;SDS011;64847;45.778;12.802;2024-01-06T00:04:09;217.20;;;162.30;;
76115;SDS011;64847;45.778;12.802;2024-01-06T00:06:34;193.40;;;134.20;;
76115;SDS011;64847;45.778;12.802;2024-01-06T00:09:00;240.47;;;187.00;;
76115;SDS011;64847;45.778;12.802;2024-01-06T00:11:25;215.87;;;152.77;;
76115;SDS011;64847;45.778;12.802;2024-01-06T00:13:51;151.30;;;106.73;;
76115;SDS011;64847;45.778;12.802;2024-01-06T00:16:17;100.50;;;71.00;;
76115;SDS011;64847;45.778;12.802;2024-01-06T00:18:46;65.67;;;45.97;;
76115;SDS011;64847;45.778;12.802;2024-01-06T00:21:12;46.67;;;33.57;;
76115;SDS011;64847;45.778;12.802;2024-01-06T00:23:37;32.37;;;23.43;;
76115;SDS011;64847;45.778;12.802;2024-01-06T00:26:03;23.33;;;17.43;;
76115;SDS011;64847;45.778;12.802;2024-01-06T00:28:29;20.13;;;14.50;;
76115;SDS011;64847;45.778;12.802;2024-01-06T00:30:55;15.30;;;10.73;;
76115;SDS011;64847;45.778;12.802;2024-01-06T00:33:20;12.87;;;9.40;;
76115;SDS011;64847;45.778;12.802;2024-01-06T00:35:46;8.73;;;7.03;;
76115;SDS011;64847;45.778;12.802;2024-01-06T00:38:11;7.87;;;6.73;;
76115;SDS011;64847;45.778;12.802;2024-01-06T00:40:37;11.30;;;8.07;;
76115;SDS011;64847;45.778;12.802;2024-01-06T00:43:02;14.53;;;9.83;;
76115;SDS011;64847;45.778;12.802;2024-01-06T00:45:28;20.40;;;11.00;;
76115;SDS011;64847;45.778;12.802;2024-01-06T00:47:53;22.27;;;12.17;;
76115;SDS011;64847;45.778;12.802;2024-01-06T00:50:18;21.80;;;13.03;;
76115;SDS011;64847;45.778;12.802;2024-01-06T00:52:44;22.17;;;11.93;;
76115;SDS011;64847;45.778;12.802;2024-01-06T00:55:10;21.77;;;12.73;;
76115;SDS011;64847;45.778;12.802;2024-01-06T00:57:35;20.17;;;11.67;;
76115;SDS011;64847;45.778;12.802;2024-01-06T01:00:00;22.43;;;11.33;;
76115;SDS011;64847;45.778;12.802;2024-01-06T01:02:26;14.60;;;8.30;;
76115;SDS011;64847;45.778;12.802;2024-01-06T01:04:51;14.53;;;8.13;;
76115;SDS011;64847;45.778;12.802;2024-01-06T01:07:17;9.73;;;6.80;;
76115;SDS011;64847;45.778;12.802;2024-01-06T01:09:43;7.13;;;5.50;;
76115;SDS011;64847;45.778;12.802;2024-01-06T01:12:08;9.10;;;5.17;;
76115;SDS011;64847;45.778;12.802;2024-01-06T01:14:33;7.67;;;5.03;;
76115;SDS011;64847;45.778;12.802;2024-01-06T01:16:59;5.87;;;4.30;;
76115;SDS011;64847;45.778;12.802;2024-01-06T01:19:24;4.70;;;3.90;;
76115;SDS011;64847;45.778;12.802;2024-01-06T01:21:50;9.33;;;7.07;;
76115;SDS011;64847;45.778;12.802;2024-01-06T01:24:18;8.87;;;6.53;;
76115;SDS011;64847;45.778;12.802;2024-01-06T01:26:44;60.90;;;47.77;;
76115;SDS011;64847;45.778;12.802;2024-01-06T01:29:09;216.33;;;160.27;;
76115;SDS011;64847;45.778;12.802;2024-01-06T01:31:34;288.90;;;217.40;;
76115;SDS011;64847;45.778;12.802;2024-01-06T01:34:00;210.90;;;149.73;;
76115;SDS011;64847;45.778;12.802;2024-01-06T01:36:25;141.70;;;97.87;;
76115;SDS011;64847;45.778;12.802;2024-01-06T01:38:50;94.03;;;64.43;;
76115;SDS011;64847;45.778;12.802;2024-01-06T01:41:16;61.30;;;44.03;;
76115;SDS011;64847;45.778;12.802;2024-01-06T01:43:41;39.20;;;29.03;;
76115;SDS011;64847;45.778;12.802;2024-01-06T01:46:06;25.83;;;18.30;;
76115;SDS011;64847;45.778;12.802;2024-01-06T01:48:32;19.77;;;14.23;;
76115;SDS011;64847;45.778;12.802;2024-01-06T01:50:59;16.60;;;11.60;;
76115;SDS011;64847;45.778;12.802;2024-01-06T01:53:24;11.63;;;9.60;;
76115;SDS011;64847;45.778;12.802;2024-01-06T01:55:51;8.83;;;7.17;;
76115;SDS011;64847;45.778;12.802;2024-01-06T01:58:17;8.83;;;5.87;;
76115;SDS011;64847;45.778;12.802;2024-01-06T02:00:43;6.33;;;4.90;;
76115;SDS011;64847;45.778;12.802;2024-01-06T02:03:08;5.20;;;3.97;;
76115;SDS011;64847;45.778;12.802;2024-01-06T02:05:34;13.37;;;11.27;;
76115;SDS011;64847;45.778;12.802;2024-01-06T02:07:59;10.80;;;8.97;;
76115;SDS011;64847;45.778;12.802;2024-01-06T02:10:25;7.33;;;6.57;;
76115;SDS011;64847;45.778;12.802;2024-01-06T02:12:51;5.73;;;5.13;;
76115;SDS011;64847;45.778;12.802;2024-01-06T02:15:17;5.70;;;5.10;;
76115;SDS011;64847;45.778;12.802;2024-01-06T02:17:43;4.13;;;3.47;;
76115;SDS011;64847;45.778;12.802;2024-01-06T02:20:08;4.30;;;3.77;;
76115;SDS011;64847;45.778;12.802;2024-01-06T02:22:38;4.40;;;4.00;;
76115;SDS011;64847;45.778;12.802;2024-01-06T02:25:04;5.70;;;4.37;;
76115;SDS011;64847;45.778;12.802;2024-01-06T02:27:32;5.67;;;4.53;;
76115;SDS011;64847;45.778;12.802;2024-01-06T02:29:58;6.07;;;5.10;;
76115;SDS011;64847;45.778;12.802;2024-01-06T02:32:23;4.20;;;3.80;;
76115;SDS011;64847;45.778;12.802;2024-01-06T02:34:49;3.93;;;3.23;;
76115;SDS011;64847;45.778;12.802;2024-01-06T02:37:14;3.10;;;2.80;;
76115;SDS011;64847;45.778;12.802;2024-01-06T02:39:39;3.10;;;2.80;;
76115;SDS011;64847;45.778;12.802;2024-01-06T02:42:05;11.37;;;9.27;;
76115;SDS011;64847;45.778;12.802;2024-01-06T02:44:30;18.40;;;13.07;;
76115;SDS011;64847;45.778;12.802;2024-01-06T02:46:56;15.07;;;10.77;;
76115;SDS011;64847;45.778;12.802;2024-01-06T02:49:21;29.17;;;19.53;;
76115;SDS011;64847;45.778;12.802;2024-01-06T02:51:46;25.50;;;17.17;;
76115;SDS011;64847;45.778;12.802;2024-01-06T02:54:12;19.83;;;12.70;;
76115;SDS011;64847;45.778;12.802;2024-01-06T02:56:37;13.00;;;9.03;;
76115;SDS011;64847;45.778;12.802;2024-01-06T02:59:03;10.23;;;6.60;;
76115;SDS011;64847;45.778;12.802;2024-01-06T03:01:29;8.13;;;6.30;;
76115;SDS011;64847;45.778;12.802;2024-01-06T03:03:56;8.13;;;4.50;;
76115;SDS011;64847;45.778;12.802;2024-01-06T03:06:21;6.83;;;4.00;;
76115;SDS011;64847;45.778;12.802;2024-01-06T03:08:47;6.23;;;3.97;;
76115;SDS011;64847;45.778;12.802;2024-01-06T03:11:12;4.07;;;3.10;;
76115;SDS011;64847;45.778;12.802;2024-01-06T03:13:38;4.50;;;2.60;;
76115;SDS011;64847;45.778;12.802;2024-01-06T03:16:03;2.47;;;2.27;;
76115;SDS011;64847;45.778;12.802;2024-01-06T03:18:30;2.77;;;2.57;;
76115;SDS011;64847;45.778;12.802;2024-01-06T03:20:55;2.27;;;2.00;;
76115;SDS011;64847;45.778;12.802;2024-01-06T03:23:21;2.43;;;2.03;;
76115;SDS011;64847;45.778;12.802;2024-01-06T03:25:46;2.77;;;2.57;;
76115;SDS011;64847;45.778;12.802;2024-01-06T03:28:12;3.70;;;3.30;;
76115;SDS011;64847;45.778;12.802;2024-01-06T03:30:37;3.97;;;3.63;;
76115;SDS011;64847;45.778;12.802;2024-01-06T03:33:02;4.10;;;3.67;;
76115;SDS011;64847;45.778;12.802;2024-01-06T03:35:28;5.43;;;4.40;;
76115;SDS011;64847;45.778;12.802;2024-01-06T03:37:54;5.23;;;4.07;;
76115;SDS011;64847;45.778;12.802;2024-01-06T03:40:20;4.00;;;3.60;;
76115;SDS011;64847;45.778;12.802;2024-01-06T03:42:45;5.43;;;3.90;;
76115;SDS011;64847;45.778;12.802;2024-01-06T03:45:10;5.40;;;4.37;;
76115;SDS011;64847;45.778;12.802;2024-01-06T03:47:37;13.27;;;9.90;;
76115;SDS011;64847;45.778;12.802;2024-01-06T03:50:02;14.67;;;9.20;;
76115;SDS011;64847;45.778;12.802;2024-01-06T03:52:28;13.47;;;9.23;;
76115;SDS011;64847;45.778;12.802;2024-01-06T03:54:54;12.67;;;8.50;;
76115;SDS011;64847;45.778;12.802;2024-01-06T03:57:19;9.67;;;6.90;;
76115;SDS011;64847;45.778;12.802;2024-01-06T03:59:44;7.70;;;5.97;;
76115;SDS011;64847;45.778;12.802;2024-01-06T04:02:10;3.97;;;3.53;;
76115;SDS011;64847;45.778;12.802;2024-01-06T04:04:35;4.03;;;3.37;;
76115;SDS011;64847;45.778;12.802;2024-01-06T04:07:00;2.77;;;2.50;;
76115;SDS011;64847;45.778;12.802;2024-01-06T04:09:26;2.90;;;2.40;;
76115;SDS011;64847;45.778;12.802;2024-01-06T04:11:52;1.97;;;1.77;;
76115;SDS011;64847;45.778;12.802;2024-01-06T04:14:17;2.00;;;1.50;;
76115;SDS011;64847;45.778;12.802;2024-01-06T04:16:43;1.70;;;1.43;;
76115;SDS011;64847;45.778;12.802;2024-01-06T04:19:08;1.30;;;1.20;;
76115;SDS011;64847;45.778;12.802;2024-01-06T04:21:36;1.00;;;1.00;;
76115;SDS011;64847;45.778;12.802;2024-01-06T04:24:01;1.43;;;1.30;;
76115;SDS011;64847;45.778;12.802;2024-01-06T04:26:26;1.33;;;1.23;;
76115;SDS011;64847;45.778;12.802;2024-01-06T04:28:52;2.20;;;1.30;;
76115;SDS011;64847;45.778;12.802;2024-01-06T04:31:17;1.90;;;1.80;;
76115;SDS011;64847;45.778;12.802;2024-01-06T04:33:43;3.27;;;2.40;;
76115;SDS011;64847;45.778;12.802;2024-01-06T04:36:08;2.87;;;2.67;;
76115;SDS011;64847;45.778;12.802;2024-01-06T04:38:33;4.80;;;3.03;;
76115;SDS011;64847;45.778;12.802;2024-01-06T04:40:59;6.37;;;4.30;;
76115;SDS011;64847;45.778;12.802;2024-01-06T04:43:24;6.73;;;4.83;;
76115;SDS011;64847;45.778;12.802;2024-01-06T04:45:50;9.90;;;6.67;;
76115;SDS011;64847;45.778;12.802;2024-01-06T04:48:15;9.40;;;6.17;;
76115;SDS011;64847;45.778;12.802;2024-01-06T04:50:41;7.33;;;4.67;;
76115;SDS011;64847;45.778;12.802;2024-01-06T04:53:06;6.47;;;3.80;;
76115;SDS011;64847;45.778;12.802;2024-01-06T04:55:31;5.37;;;3.27;;
76115;SDS011;64847;45.778;12.802;2024-01-06T04:57:57;3.30;;;3.00;;
76115;SDS011;64847;45.778;12.802;2024-01-06T05:00:22;5.07;;;3.33;;
76115;SDS011;64847;45.778;12.802;2024-01-06T05:02:48;5.87;;;3.43;;
76115;SDS011;64847;45.778;12.802;2024-01-06T05:05:13;3.50;;;2.73;;
76115;SDS011;64847;45.778;12.802;2024-01-06T05:07:39;4.23;;;2.97;;
76115;SDS011;64847;45.778;12.802;2024-01-06T05:10:05;5.03;;;3.10;;
76115;SDS011;64847;45.778;12.802;2024-01-06T05:12:31;4.00;;;3.10;;
76115;SDS011;64847;45.778;12.802;2024-01-06T05:14:56;2.87;;;2.57;;
76115;SDS011;64847;45.778;12.802;2024-01-06T05:17:21;3.10;;;2.63;;
76115;SDS011;64847;45.778;12.802;2024-01-06T05:19:47;3.57;;;2.53;;
76115;SDS011;64847;45.778;12.802;2024-01-06T05:22:12;2.70;;;2.50;;
76115;SDS011;64847;45.778;12.802;2024-01-06T05:24:38;3.27;;;2.63;;
76115;SDS011;64847;45.778;12.802;2024-01-06T05:27:03;2.60;;;2.10;;
76115;SDS011;64847;45.778;12.802;2024-01-06T05:29:29;2.50;;;2.07;;
76115;SDS011;64847;45.778;12.802;2024-01-06T05:31:54;1.80;;;1.67;;
76115;SDS011;64847;45.778;12.802;2024-01-06T05:34:20;2.17;;;2.00;;
76115;SDS011;64847;45.778;12.802;2024-01-06T05:36:45;3.00;;;2.27;;
76115;SDS011;64847;45.778;12.802;2024-01-06T05:39:11;2.13;;;1.97;;
76115;SDS011;64847;45.778;12.802;2024-01-06T05:41:40;2.10;;;1.90;;
76115;SDS011;64847;45.778;12.802;2024-01-06T05:44:05;3.33;;;2.07;;
76115;SDS011;64847;45.778;12.802;2024-01-06T05:46:31;2.57;;;2.03;;
76115;SDS011;64847;45.778;12.802;2024-01-06T05:48:57;2.20;;;2.00;;
76115;SDS011;64847;45.778;12.802;2024-01-06T05:51:23;4.20;;;2.60;;
76115;SDS011;64847;45.778;12.802;2024-01-06T05:53:48;3.10;;;1.93;;
76115;SDS011;64847;45.778;12.802;2024-01-06T05:56:24;3.10;;;2.27;;
76115;SDS011;64847;45.778;12.802;2024-01-06T05:58:50;2.40;;;2.17;;
76115;SDS011;64847;45.778;12.802;2024-01-06T06:01:15;9.40;;;4.57;;
76115;SDS011;64847;45.778;12.802;2024-01-06T06:03:41;14.10;;;8.57;;
76115;SDS011;64847;45.778;12.802;2024-01-06T06:06:08;21.43;;;11.07;;
76115;SDS011;64847;45.778;12.802;2024-01-06T06:08:33;21.23;;;10.63;;
76115;SDS011;64847;45.778;12.802;2024-01-06T06:10:58;19.13;;;10.77;;
76115;SDS011;64847;45.778;12.802;2024-01-06T06:13:30;15.37;;;8.03;;
76115;SDS011;64847;45.778;12.802;2024-01-06T06:15:55;10.93;;;5.87;;
76115;SDS011;64847;45.778;12.802;2024-01-06T06:18:21;10.97;;;6.13;;
76115;SDS011;64847;45.778;12.802;2024-01-06T06:20:46;11.23;;;5.90;;
76115;SDS011;64847;45.778;12.802;2024-01-06T06:23:12;7.30;;;4.77;;
76115;SDS011;64847;45.778;12.802;2024-01-06T06:25:38;6.37;;;4.30;;
76115;SDS011;64847;45.778;12.802;2024-01-06T06:28:04;5.93;;;3.40;;
76115;SDS011;64847;45.778;12.802;2024-01-06T06:30:29;4.63;;;2.83;;
76115;SDS011;64847;45.778;12.802;2024-01-06T06:32:55;5.50;;;3.67;;
76115;SDS011;64847;45.778;12.802;2024-01-06T06:35:20;5.83;;;3.47;;
76115;SDS011;64847;45.778;12.802;2024-01-06T06:37:46;3.17;;;2.73;;
76115;SDS011;64847;45.778;12.802;2024-01-06T06:40:12;3.70;;;2.50;;
76115;SDS011;64847;45.778;12.802;2024-01-06T06:42:37;3.07;;;2.03;;
76115;SDS011;64847;45.778;12.802;2024-01-06T06:45:03;2.13;;;1.93;;
76115;SDS011;64847;45.778;12.802;2024-01-06T06:47:29;2.27;;;2.07;;
76115;SDS011;64847;45.778;12.802;2024-01-06T06:49:54;2.80;;;2.13;;
76115;SDS011;64847;45.778;12.802;2024-01-06T06:52:19;2.27;;;2.07;;
76115;SDS011;64847;45.778;12.802;2024-01-06T06:54:45;1.93;;;1.60;;
76115;SDS011;64847;45.778;12.802;2024-01-06T06:57:10;3.13;;;1.63;;
76115;SDS011;64847;45.778;12.802;2024-01-06T06:59:36;2.97;;;1.70;;
76115;SDS011;64847;45.778;12.802;2024-01-06T07:02:02;1.90;;;1.80;;
76115;SDS011;64847;45.778;12.802;2024-01-06T07:04:27;2.37;;;1.70;;
76115;SDS011;64847;45.778;12.802;2024-01-06T07:06:53;2.53;;;1.80;;
76115;SDS011;64847;45.778;12.802;2024-01-06T07:09:18;1.60;;;1.50;;
76115;SDS011;64847;45.778;12.802;2024-01-06T07:11:43;1.70;;;1.60;;
76115;SDS011;64847;45.778;12.802;2024-01-06T07:14:09;2.13;;;2.00;;
76115;SDS011;64847;45.778;12.802;2024-01-06T07:16:34;2.13;;;2.03;;
76115;SDS011;64847;45.778;12.802;2024-01-06T07:19:00;2.10;;;2.00;;
76115;SDS011;64847;45.778;12.802;2024-01-06T07:21:25;1.90;;;1.80;;
76115;SDS011;64847;45.778;12.802;2024-01-06T07:23:50;1.70;;;1.60;;
76115;SDS011;64847;45.778;12.802;2024-01-06T07:26:16;1.70;;;1.60;;
76115;SDS011;64847;45.778;12.802;2024-01-06T07:28:41;1.40;;;1.40;;
76115;SDS011;64847;45.778;12.802;2024-01-06T07:31:06;2.00;;;1.80;;
76115;SDS011;64847;45.778;12.802;2024-01-06T07:33:32;2.20;;;2.00;;
76115;SDS011;64847;45.778;12.802;2024-01-06T07:35:57;2.23;;;1.83;;
76115;SDS011;64847;45.778;12.802;2024-01-06T07:38:23;1.97;;;1.83;;
76115;SDS011;64847;45.778;12.802;2024-01-06T07:40:48;2.23;;;2.03;;
76115;SDS011;64847;45.778;12.802;2024-01-06T07:43:13;1.80;;;1.70;;
76115;SDS011;64847;45.778;12.802;2024-01-06T07:45:40;2.53;;;2.07;;
76115;SDS011;64847;45.778;12.802;2024-01-06T07:48:06;2.00;;;1.80;;
76115;SDS011;64847;45.778;12.802;2024-01-06T07:50:32;1.77;;;1.67;;
76115;SDS011;64847;45.778;12.802;2024-01-06T07:52:57;2.63;;;1.80;;
76115;SDS011;64847;45.778;12.802;2024-01-06T07:55:23;2.27;;;2.07;;
76115;SDS011;64847;45.778;12.802;2024-01-06T07:57:48;2.53;;;2.07;;
76115;SDS011;64847;45.778;12.802;2024-01-06T08:00:14;2.03;;;1.93;;
76115;SDS011;64847;45.778;12.802;2024-01-06T08:02:42;5.43;;;3.30;;
76115;SDS011;64847;45.778;12.802;2024-01-06T08:05:07;4.83;;;3.30;;
76115;SDS011;64847;45.778;12.802;2024-01-06T08:07:33;5.23;;;3.50;;
76115;SDS011;64847;45.778;12.802;2024-01-06T08:09:59;3.80;;;2.80;;
76115;SDS011;64847;45.778;12.802;2024-01-06T08:12:24;4.07;;;2.70;;
76115;SDS011;64847;45.778;12.802;2024-01-06T08:14:50;3.43;;;2.57;;
76115;SDS011;64847;45.778;12.802;2024-01-06T08:17:15;5.13;;;3.27;;
76115;SDS011;64847;45.778;12.802;2024-01-06T08:19:41;3.07;;;2.63;;
76115;SDS011;64847;45.778;12.802;2024-01-06T08:22:07;2.30;;;2.10;;
76115;SDS011;64847;45.778;12.802;2024-01-06T08:24:32;2.40;;;1.83;;
76115;SDS011;64847;45.778;12.802;2024-01-06T08:26:58;1.83;;;1.73;;
76115;SDS011;64847;45.778;12.802;2024-01-06T08:29:24;1.50;;;1.40;;
76115;SDS011;64847;45.778;12.802;2024-01-06T08:31:49;1.43;;;1.33;;
76115;SDS011;64847;45.778;12.802;2024-01-06T08:34:17;1.53;;;1.43;;
76115;SDS011;64847;45.778;12.802;2024-01-06T08:36:42;1.50;;;1.40;;
76115;SDS011;64847;45.778;12.802;2024-01-06T08:39:08;1.30;;;1.30;;
76115;SDS011;64847;45.778;12.802;2024-01-06T08:41:33;1.20;;;1.20;;
76115;SDS011;64847;45.778;12.802;2024-01-06T08:43:59;1.53;;;1.43;;
76115;SDS011;64847;45.778;12.802;2024-01-06T08:46:25;1.30;;;1.30;;
76115;SDS011;64847;45.778;12.802;2024-01-06T08:48:50;1.40;;;1.30;;
76115;SDS011;64847;45.778;12.802;2024-01-06T08:51:15;1.63;;;1.53;;
76115;SDS011;64847;45.778;12.802;2024-01-06T08:53:41;1.00;;;1.00;;
76115;SDS011;64847;45.778;12.802;2024-01-06T08:56:07;1.70;;;1.60;;
76115;SDS011;64847;45.778;12.802;2024-01-06T08:58:32;1.63;;;1.43;;
76115;SDS011;64847;45.778;12.802;2024-01-06T09:00:58;1.20;;;1.20;;
76115;SDS011;64847;45.778;12.802;2024-01-06T09:03:24;2.10;;;1.60;;
76115;SDS011;64847;45.778;12.802;2024-01-06T09:05:55;1.43;;;1.23;;
76115;SDS011;64847;45.778;12.802;2024-01-06T09:08:21;1.60;;;1.50;;
76115;SDS011;64847;45.778;12.802;2024-01-06T09:10:46;1.63;;;1.50;;
76115;SDS011;64847;45.778;12.802;2024-01-06T09:13:12;1.43;;;1.40;;
76115;SDS011;64847;45.778;12.802;2024-01-06T09:15:37;1.57;;;1.47;;
76115;SDS011;64847;45.778;12.802;2024-01-06T09:18:02;1.30;;;1.20;;
76115;SDS011;64847;45.778;12.802;2024-01-06T09:20:28;1.30;;;1.20;;
76115;SDS011;64847;45.778;12.802;2024-01-06T09:22:54;1.43;;;1.33;;
76115;SDS011;64847;45.778;12.802;2024-01-06T09:25:19;1.10;;;1.10;;
76115;SDS011;64847;45.778;12.802;2024-01-06T09:27:44;1.50;;;1.50;;
76115;SDS011;64847;45.778;12.802;2024-01-06T09:30:10;1.60;;;1.50;;
76115;SDS011;64847;45.778;12.802;2024-01-06T09:32:36;1.40;;;1.40;;
76115;SDS011;64847;45.778;12.802;2024-01-06T09:35:01;2.33;;;1.63;;
76115;SDS011;64847;45.778;12.802;2024-01-06T09:37:27;2.03;;;1.77;;
76115;SDS011;64847;45.778;12.802;2024-01-06T09:39:52;1.63;;;1.53;;
76115;SDS011;64847;45.778;12.802;2024-01-06T09:42:18;2.10;;;1.80;;
76115;SDS011;64847;45.778;12.802;2024-01-06T09:44:43;1.43;;;1.33;;
76115;SDS011;64847;45.778;12.802;2024-01-06T09:47:10;1.50;;;1.40;;
76115;SDS011;64847;45.778;12.802;2024-01-06T09:49:37;1.50;;;1.40;;
76115;SDS011;64847;45.778;12.802;2024-01-06T09:52:04;2.07;;;1.50;;
76115;SDS011;64847;45.778;12.802;2024-01-06T09:54:33;1.27;;;1.27;;
76115;SDS011;64847;45.778;12.802;2024-01-06T09:57:00;1.53;;;1.33;;
76115;SDS011;64847;45.778;12.802;2024-01-06T09:59:27;1.73;;;1.60;;
76115;SDS011;64847;45.778;12.802;2024-01-06T10:01:54;1.77;;;1.60;;
76115;SDS011;64847;45.778;12.802;2024-01-06T10:04:20;2.20;;;1.30;;
76115;SDS011;64847;45.778;12.802;2024-01-06T10:06:45;1.30;;;1.30;;
76115;SDS011;64847;45.778;12.802;2024-01-06T10:09:11;1.83;;;1.10;;
76115;SDS011;64847;45.778;12.802;2024-01-06T10:11:37;1.27;;;1.20;;
76115;SDS011;64847;45.778;12.802;2024-01-06T10:14:05;1.50;;;1.40;;
76115;SDS011;64847;45.778;12.802;2024-01-06T10:16:31;1.27;;;1.27;;
76115;SDS011;64847;45.778;12.802;2024-01-06T10:18:56;1.20;;;1.20;;
76115;SDS011;64847;45.778;12.802;2024-01-06T10:21:22;1.20;;;1.20;;
76115;SDS011;64847;45.778;12.802;2024-01-06T10:23:47;1.53;;;1.53;;
76115;SDS011;64847;45.778;12.802;2024-01-06T10:26:13;1.50;;;1.40;;
76115;SDS011;64847;45.778;12.802;2024-01-06T10:28:39;1.43;;;1.40;;
76115;SDS011;64847;45.778;12.802;2024-01-06T10:31:04;1.40;;;1.30;;
76115;SDS011;64847;45.778;12.802;2024-01-06T10:33:29;1.50;;;1.40;;
76115;SDS011;64847;45.778;12.802;2024-01-06T10:35:57;1.23;;;1.23;;
76115;SDS011;64847;45.778;12.802;2024-01-06T10:38:25;1.50;;;1.40;;
76115;SDS011;64847;45.778;12.802;2024-01-06T10:40:58;1.50;;;1.40;;
76115;SDS011;64847;45.778;12.802;2024-01-06T10:43:32;1.30;;;1.30;;
76115;SDS011;64847;45.778;12.802;2024-01-06T10:46:08;1.60;;;1.50;;
76115;SDS011;64847;45.778;12.802;2024-01-06T10:48:36;1.30;;;1.30;;
76115;SDS011;64847;45.778;12.802;2024-01-06T10:51:09;1.30;;;1.30;;
76115;SDS011;64847;45.778;12.802;2024-01-06T10:53:35;1.30;;;1.30;;
76115;SDS011;64847;45.778;12.802;2024-01-06T10:56:07;1.10;;;1.10;;
76115;SDS011;64847;45.778;12.802;2024-01-06T10:58:34;1.20;;;1.20;;
76115;SDS011;64847;45.778;12.802;2024-01-06T11:01:03;1.43;;;1.30;;
76115;SDS011;64847;45.778;12.802;2024-01-06T11:03:28;1.30;;;1.20;;
76115;SDS011;64847;45.778;12.802;2024-01-06T11:05:55;1.20;;;1.20;;
76115;SDS011;64847;45.778;12.802;2024-01-06T11:08:22;1.40;;;1.30;;
76115;SDS011;64847;45.778;12.802;2024-01-06T11:10:48;0.93;;;0.93;;
76115;SDS011;64847;45.778;12.802;2024-01-06T11:13:14;1.20;;;1.20;;
76115;SDS011;64847;45.778;12.802;2024-01-06T11:15:51;1.33;;;1.30;;
76115;SDS011;64847;45.778;12.802;2024-01-06T11:18:33;1.20;;;1.20;;
76115;SDS011;64847;45.778;12.802;2024-01-06T11:26:52;1.20;;;1.20;;
76115;SDS011;64847;45.778;12.802;2024-01-06T11:29:19;1.33;;;1.33;;
76115;SDS011;64847;45.778;12.802;2024-01-06T11:32:17;1.30;;;1.20;;
76115;SDS011;64847;45.778;12.802;2024-01-06T11:34:49;1.20;;;1.20;;
76115;SDS011;64847;45.778;12.802;2024-01-06T11:37:17;1.20;;;1.20;;
76115;SDS011;64847;45.778;12.802;2024-01-06T11:39:42;1.10;;;1.10;;
76115;SDS011;64847;45.778;12.802;2024-01-06T11:42:10;1.07;;;1.07;;
76115;SDS011;64847;45.778;12.802;2024-01-06T11:44:38;0.97;;;0.97;;
76115;SDS011;64847;45.778;12.802;2024-01-06T11:47:04;1.03;;;1.03;;
76115;SDS011;64847;45.778;12.802;2024-01-06T11:49:31;1.07;;;1.07;;
76115;SDS011;64847;45.778;12.802;2024-01-06T11:51:56;1.10;;;1.10;;
76115;SDS011;64847;45.778;12.802;2024-01-06T11:54:22;1.10;;;1.10;;
76115;SDS011;64847;45.778;12.802;2024-01-06T11:56:48;1.13;;;1.10;;
76115;SDS011;64847;45.778;12.802;2024-01-06T11:59:13;1.20;;;1.20;;
76115;SDS011;64847;45.778;12.802;2024-01-06T12:01:39;0.90;;;0.90;;
76115;SDS011;64847;45.778;12.802;2024-01-06T12:04:05;1.20;;;1.20;;
76115;SDS011;64847;45.778;12.802;2024-01-06T12:06:31;1.23;;;1.23;;
76115;SDS011;64847;45.778;12.802;2024-01-06T12:09:06;1.13;;;1.13;;
76115;SDS011;64847;45.778;12.802;2024-01-06T12:11:34;1.37;;;1.30;;
76115;SDS011;64847;45.778;12.802;2024-01-06T12:13:59;1.23;;;1.13;;
76115;SDS011;64847;45.778;12.802;2024-01-06T12:16:25;1.10;;;1.10;;
76115;SDS011;64847;45.778;12.802;2024-01-06T12:18:54;1.20;;;1.20;;
76115;SDS011;64847;45.778;12.802;2024-01-06T12:21:24;1.33;;;1.20;;
76115;SDS011;64847;45.778;12.802;2024-01-06T12:23:50;0.93;;;0.93;;
76115;SDS011;64847;45.778;12.802;2024-01-06T12:26:19;1.00;;;0.90;;
76115;SDS011;64847;45.778;12.802;2024-01-06T12:28:45;0.90;;;0.90;;
76115;SDS011;64847;45.778;12.802;2024-01-06T12:31:11;1.00;;;1.00;;
76115;SDS011;64847;45.778;12.802;2024-01-06T12:33:37;1.10;;;1.10;;
76115;SDS011;64847;45.778;12.802;2024-01-06T12:36:04;1.07;;;1.07;;
76115;SDS011;64847;45.778;12.802;2024-01-06T12:38:30;1.03;;;1.03;;
76115;SDS011;64847;45.778;12.802;2024-01-06T12:40:55;1.00;;;1.00;;
76115;SDS011;64847;45.778;12.802;2024-01-06T12:43:21;1.00;;;1.00;;
76115;SDS011;64847;45.778;12.802;2024-01-06T12:45:46;1.10;;;1.00;;
76115;SDS011;64847;45.778;12.802;2024-01-06T12:48:12;0.80;;;0.80;;
76115;SDS011;64847;45.778;12.802;2024-01-06T12:50:37;0.90;;;0.90;;
76115;SDS011;64847;45.778;12.802;2024-01-06T12:53:03;1.10;;;1.10;;
76115;SDS011;64847;45.778;12.802;2024-01-06T12:55:28;0.90;;;0.90;;
76115;SDS011;64847;45.778;12.802;2024-01-06T12:57:54;1.10;;;1.10;;
76115;SDS011;64847;45.778;12.802;2024-01-06T13:00:19;1.00;;;1.00;;
76115;SDS011;64847;45.778;12.802;2024-01-06T13:02:45;1.30;;;1.20;;
76115;SDS011;64847;45.778;12.802;2024-01-06T13:05:10;1.20;;;1.20;;
76115;SDS011;64847;45.778;12.802;2024-01-06T13:07:38;1.00;;;1.00;;
76115;SDS011;64847;45.778;12.802;2024-01-06T13:10:04;1.00;;;1.00;;
76115;SDS011;64847;45.778;12.802;2024-01-06T13:12:30;1.20;;;1.20;;
76115;SDS011;64847;45.778;12.802;2024-01-06T13:14:55;1.20;;;1.20;;
76115;SDS011;64847;45.778;12.802;2024-01-06T13:17:21;1.00;;;1.00;;
76115;SDS011;64847;45.778;12.802;2024-01-06T13:19:46;1.40;;;1.30;;
76115;SDS011;64847;45.778;12.802;2024-01-06T13:22:11;1.00;;;1.00;;
76115;SDS011;64847;45.778;12.802;2024-01-06T13:24:38;0.87;;;0.87;;
76115;SDS011;64847;45.778;12.802;2024-01-06T13:27:05;1.23;;;1.10;;
76115;SDS011;64847;45.778;12.802;2024-01-06T13:29:31;1.07;;;1.07;;
76115;SDS011;64847;45.778;12.802;2024-01-06T13:31:56;1.20;;;1.10;;
76115;SDS011;64847;45.778;12.802;2024-01-06T13:34:22;1.10;;;1.10;;
76115;SDS011;64847;45.778;12.802;2024-01-06T13:36:47;1.37;;;1.37;;
76115;SDS011;64847;45.778;12.802;2024-01-06T13:39:13;1.10;;;1.10;;
76115;SDS011;64847;45.778;12.802;2024-01-06T13:41:47;1.40;;;1.40;;
76115;SDS011;64847;45.778;12.802;2024-01-06T13:44:13;1.40;;;1.30;;
76115;SDS011;64847;45.778;12.802;2024-01-06T13:46:39;1.10;;;1.10;;
76115;SDS011;64847;45.778;12.802;2024-01-06T13:49:12;1.00;;;1.00;;
76115;SDS011;64847;45.778;12.802;2024-01-06T13:51:39;1.10;;;1.10;;
76115;SDS011;64847;45.778;12.802;2024-01-06T13:54:05;1.10;;;1.10;;
76115;SDS011;64847;45.778;12.802;2024-01-06T13:56:30;1.13;;;1.13;;
76115;SDS011;64847;45.778;12.802;2024-01-06T13:58:56;0.90;;;0.90;;
76115;SDS011;64847;45.778;12.802;2024-01-06T14:01:22;1.00;;;1.00;;
76115;SDS011;64847;45.778;12.802;2024-01-06T14:03:49;1.07;;;0.97;;
76115;SDS011;64847;45.778;12.802;2024-01-06T14:06:15;1.00;;;1.00;;
76115;SDS011;64847;45.778;12.802;2024-01-06T14:08:40;1.17;;;1.17;;
76115;SDS011;64847;45.778;12.802;2024-01-06T14:11:06;1.00;;;1.00;;
76115;SDS011;64847;45.778;12.802;2024-01-06T14:13:32;1.17;;;1.17;;
76115;SDS011;64847;45.778;12.802;2024-01-06T14:15:57;0.90;;;0.90;;
76115;SDS011;64847;45.778;12.802;2024-01-06T14:18:23;1.10;;;1.00;;
76115;SDS011;64847;45.778;12.802;2024-01-06T14:20:48;0.90;;;0.90;;
76115;SDS011;64847;45.778;12.802;2024-01-06T14:23:13;1.00;;;1.00;;
76115;SDS011;64847;45.778;12.802;2024-01-06T14:25:39;1.00;;;1.00;;
76115;SDS011;64847;45.778;12.802;2024-01-06T14:28:08;0.90;;;0.90;;
76115;SDS011;64847;45.778;12.802;2024-01-06T14:30:33;0.87;;;0.87;;